Time;durP1;ratioP1;P1;durP2;ratioP2;P2;SDS_P1;SDS_P2;PMS_P1;PMS_P2;Temp;Humidity;BMP_temperature;BMP_pressure;BME280_temperature;BME280_humidity;BME280_pressure;Samples;Min_cycle;Max_cycle;Signal;HPM_P1;HPM_P2
2022/07/12 00:00:25;;;;;;;6.65;1.45;;;;;;;16.86;72.10;99987.77;1704385;82;21073;-72
2022/07/12 00:02:51;;;;;;;4.45;1.60;;;;;;;16.84;72.04;99985.77;1705246;82;21513;-72
2022/07/12 00:05:18;;;;;;;7.28;1.82;;;;;;;16.82;71.72;99987.74;1711805;83;21046;-72
2022/07/12 00:07:45;;;;;;;5.30;1.60;;;;;;;16.78;71.75;99985.59;1707712;82;21055;-72
2022/07/12 00:10:12;;;;;;;3.70;1.45;;;;;;;16.79;71.83;99990.73;1710518;82;21102;-71
2022/07/12 00:12:40;;;;;;;3.50;1.50;;;;;;;16.83;71.58;99989.41;1709719;82;21057;-72
2022/07/12 00:15:09;;;;;;;2.72;1.10;;;;;;;16.83;71.26;99992.06;1705634;82;22020;-72
2022/07/12 00:17:38;;;;;;;4.28;1.40;;;;;;;16.80;71.24;99984.95;1702228;83;21082;-72
2022/07/12 00:20:06;;;;;;;5.30;1.40;;;;;;;16.74;71.24;99978.48;1708273;82;21062;-71
2022/07/12 00:22:32;;;;;;;6.22;1.60;;;;;;;16.69;71.22;99976.84;1711596;82;21097;-72
2022/07/12 00:24:59;;;;;;;3.83;1.32;;;;;;;16.64;71.21;99974.72;1759461;79;21058;-71
2022/07/12 00:27:25;;;;;;;4.85;1.12;;;;;;;16.64;71.18;99976.05;1764641;79;21492;-71
2022/07/12 00:29:52;;;;;;;4.33;1.72;;;;;;;16.67;71.09;99968.22;1754925;80;21082;-70
2022/07/12 00:32:18;;;;;;;4.87;1.32;;;;;;;16.71;71.18;99970.87;1762778;80;21090;-70
2022/07/12 00:34:45;;;;;;;5.10;1.47;;;;;;;16.76;71.01;99974.32;1758264;80;21033;-70
2022/07/12 00:37:11;;;;;;;3.67;1.27;;;;;;;16.78;70.96;99970.50;1721798;82;21060;-71
2022/07/12 00:39:38;;;;;;;3.45;1.35;;;;;;;16.77;70.61;99970.67;1760126;79;21049;-70
2022/07/12 00:42:05;;;;;;;3.70;1.07;;;;;;;16.68;70.45;99968.05;1760940;79;21023;-71
2022/07/12 00:44:33;;;;;;;2.87;1.10;;;;;;;16.63;70.50;99969.07;1763043;80;21036;-70
2022/07/12 00:47:03;;;;;;;3.95;1.30;;;;;;;16.61;70.02;99966.24;1758109;79;21019;-71
2022/07/12 00:49:30;;;;;;;3.45;1.10;;;;;;;16.53;70.01;99967.12;1755856;79;21747;-71
2022/07/12 00:51:56;;;;;;;3.72;1.40;;;;;;;16.42;70.19;99960.84;1764078;80;22203;-70
2022/07/12 00:54:23;;;;;;;6.50;1.07;;;;;;;16.32;70.34;99958.38;1762180;79;21141;-72
2022/07/12 00:56:49;;;;;;;3.08;0.80;;;;;;;16.24;70.68;99960.58;1756288;79;21615;-71
2022/07/12 00:59:16;;;;;;;3.85;1.00;;;;;;;16.22;70.83;99963.06;1748414;81;21723;-71
2022/07/12 01:01:42;;;;;;;5.03;1.17;;;;;;;16.23;70.70;99966.88;1751503;79;21067;-71
2022/07/12 01:04:08;;;;;;;4.97;1.10;;;;;;;16.22;70.60;99965.72;1702531;83;21140;-71
2022/07/12 01:06:35;;;;;;;4.70;1.00;;;;;;;16.23;70.72;99973.52;1662543;85;21092;-71
2022/07/12 01:09:02;;;;;;;4.10;1.10;;;;;;;16.22;70.94;99971.84;1746842;81;21063;-71
2022/07/12 01:11:29;;;;;;;2.80;0.95;;;;;;;16.21;70.96;99973.37;1690430;83;21047;-71
2022/07/12 01:13:57;;;;;;;4.05;1.12;;;;;;;16.18;71.01;99980.34;1747666;81;21011;-72
2022/07/12 01:16:23;;;;;;;3.17;0.98;;;;;;;16.16;71.16;99972.54;1745860;81;22142;-72
2022/07/12 01:18:52;;;;;;;3.47;1.07;;;;;;;16.20;71.05;99973.02;1747915;81;21511;-72
2022/07/12 01:21:22;;;;;;;2.67;1.00;;;;;;;16.23;70.85;99971.36;1745564;81;21046;-71
2022/07/12 01:23:49;;;;;;;3.33;1.20;;;;;;;16.22;70.90;99971.02;1742087;81;21118;-72
2022/07/12 01:26:16;;;;;;;6.92;1.20;;;;;;;16.17;70.87;99970.20;1752358;81;21101;-70
2022/07/12 01:28:44;;;;;;;3.65;1.07;;;;;;;16.13;70.89;99972.36;1750175;81;21162;-72
2022/07/12 01:31:10;;;;;;;2.83;1.12;;;;;;;16.08;70.70;99981.33;1749972;81;21032;-72
2022/07/12 01:33:36;;;;;;;3.62;1.27;;;;;;;16.04;70.72;99968.56;1746490;81;21563;-72
2022/07/12 01:36:04;;;;;;;5.50;1.25;;;;;;;16.06;70.42;99970.06;1754051;81;21574;-71
2022/07/12 01:38:31;;;;;;;5.00;1.27;;;;;;;16.05;70.29;99966.25;1749576;81;21563;-72
2022/07/12 01:40:59;;;;;;;3.90;1.02;;;;;;;16.01;70.29;99970.25;1745710;81;21139;-72
2022/07/12 01:43:25;;;;;;;3.77;1.20;;;;;;;15.97;70.20;99973.74;1703634;83;21099;-72
2022/07/12 01:45:52;;;;;;;4.65;1.10;;;;;;;15.87;70.18;99973.91;1698757;83;21027;-72
2022/07/12 01:48:18;;;;;;;2.08;0.80;;;;;;;15.82;70.32;99971.41;1697506;83;21090;-71
2022/07/12 01:50:45;;;;;;;8.88;1.30;;;;;;;15.86;70.28;99976.23;1747407;80;21090;-71
2022/07/12 01:53:13;;;;;;;1.92;0.78;;;;;;;15.88;70.18;99984.84;1747105;81;21603;-72
2022/07/12 01:55:40;;;;;;;4.25;1.20;;;;;;;15.86;70.11;99983.36;1749552;80;21039;-72
2022/07/12 01:58:06;;;;;;;3.85;1.17;;;;;;;15.84;70.30;99988.02;1752562;80;21054;-72
2022/07/12 02:00:33;;;;;;;4.62;1.20;;;;;;;15.77;70.12;99986.53;1754576;81;21144;-72
2022/07/12 02:03:00;;;;;;;2.58;1.07;;;;;;;15.68;70.33;99982.98;1739378;81;21138;-71
2022/07/12 02:05:27;;;;;;;2.77;1.00;;;;;;;15.63;70.45;99983.98;1747304;81;21525;-72
2022/07/12 02:07:53;;;;;;;4.75;1.10;;;;;;;15.66;70.38;99989.47;1730770;80;21487;-72
2022/07/12 02:10:19;;;;;;;3.27;0.90;;;;;;;15.65;70.27;99981.17;1698348;83;21484;-71
2022/07/12 02:12:46;;;;;;;4.87;1.17;;;;;;;15.60;70.32;99986.48;1747799;79;21379;-72
2022/07/12 02:15:13;;;;;;;4.10;1.22;;;;;;;15.55;70.20;99978.67;1742699;81;21067;-72
2022/07/12 02:17:41;;;;;;;3.45;0.80;;;;;;;15.47;70.25;99991.45;1743548;80;21607;-71
2022/07/12 02:20:12;;;;;;;3.90;1.07;;;;;;;15.42;70.16;99985.81;1748500;81;21074;-71
2022/07/12 02:22:39;;;;;;;4.20;1.17;;;;;;;15.41;70.14;99988.94;1746707;79;21104;-72
2022/07/12 02:25:06;;;;;;;4.35;0.88;;;;;;;15.41;70.34;99987.61;1726540;81;21519;-72
2022/07/12 02:27:33;;;;;;;3.60;1.20;;;;;;;15.36;70.20;99987.78;1754448;81;21094;-71
2022/07/12 02:30:00;;;;;;;4.12;1.30;;;;;;;15.32;70.28;99987.79;1745334;81;21133;-72
2022/07/12 02:32:27;;;;;;;4.35;1.30;;;;;;;15.27;70.54;99994.08;1752327;81;21078;-71
2022/07/12 02:34:54;;;;;;;1.82;0.70;;;;;;;15.24;70.60;99993.38;1746149;81;21047;-71
2022/07/12 02:37:20;;;;;;;3.10;0.90;;;;;;;15.27;70.61;99998.88;1748480;81;21083;-71
2022/07/12 02:39:46;;;;;;;5.67;1.35;;;;;;;15.29;70.50;99999.53;1746943;81;21373;-71
2022/07/12 02:42:13;;;;;;;2.90;1.00;;;;;;;15.29;70.27;100006.16;1744624;81;21120;-71
2022/07/12 02:44:40;;;;;;;2.87;1.27;;;;;;;15.23;70.39;100010.77;1742917;81;21516;-71
2022/07/12 02:47:07;;;;;;;4.50;1.30;;;;;;;15.19;70.42;100004.16;1745660;80;21580;-71
2022/07/12 02:49:34;;;;;;;4.22;1.40;;;;;;;15.14;70.59;100011.76;1727012;81;21501;-71
2022/07/12 02:52:03;;;;;;;2.60;1.07;;;;;;;15.12;70.65;100020.37;1749995;79;21042;-71
2022/07/12 02:54:30;;;;;;;3.45;1.15;;;;;;;15.14;70.57;100015.73;1754620;81;21082;-71
2022/07/12 02:56:56;;;;;;;3.80;1.17;;;;;;;15.17;70.40;100012.77;1698306;82;21031;-71
2022/07/12 02:59:24;;;;;;;3.77;1.15;;;;;;;15.17;70.20;100015.41;1758362;80;21556;-71
2022/07/12 03:01:50;;;;;;;4.97;1.32;;;;;;;15.14;70.35;100028.98;1766246;79;21543;-71
2022/07/12 03:04:17;;;;;;;3.77;1.17;;;;;;;15.10;70.34;100022.36;1762646;80;21031;-71
2022/07/12 03:06:44;;;;;;;7.00;1.32;;;;;;;15.04;70.36;100027.28;1758527;79;21868;-71
2022/07/12 03:09:11;;;;;;;4.00;1.30;;;;;;;15.02;70.37;100027.95;1775057;79;21485;-71
2022/07/12 03:11:38;;;;;;;4.65;1.00;;;;;;;15.06;70.32;100029.77;1766535;79;21707;-72
2022/07/12 03:14:04;;;;;;;4.17;1.17;;;;;;;15.09;70.15;100027.31;1769599;79;21066;-71
2022/07/12 03:16:31;;;;;;;2.58;1.00;;;;;;;15.12;69.76;100017.72;1759575;80;21579;-71
2022/07/12 03:18:57;;;;;;;3.35;1.20;;;;;;;15.11;69.81;100035.42;1770466;80;21147;-71
2022/07/12 03:21:24;;;;;;;4.00;1.37;;;;;;;15.07;70.01;100020.84;1772952;79;21023;-71
2022/07/12 03:23:50;;;;;;;4.72;1.32;;;;;;;15.01;70.01;100023.66;1762080;79;22048;-71
2022/07/12 03:26:17;;;;;;;3.37;1.15;;;;;;;15.00;69.85;100019.34;1768247;79;21101;-71
2022/07/12 03:28:44;;;;;;;3.05;1.05;;;;;;;15.04;69.57;100022.48;1776042;79;21077;-71
2022/07/12 03:31:11;;;;;;;3.10;1.02;;;;;;;15.06;69.78;100021.83;1769246;80;21620;-71
2022/07/12 03:33:37;;;;;;;3.42;1.37;;;;;;;15.05;69.67;100019.68;1755031;79;21039;-71
2022/07/12 03:36:06;;;;;;;2.87;1.02;;;;;;;15.05;69.60;100018.86;1762567;79;21042;-71
2022/07/12 03:38:33;;;;;;;3.52;0.98;;;;;;;15.07;69.66;100027.98;1768763;79;20991;-71
2022/07/12 03:41:00;;;;;;;3.70;1.30;;;;;;;15.10;69.37;100022.36;1763740;79;21044;-71
2022/07/12 03:43:27;;;;;;;6.08;1.40;;;;;;;15.15;68.94;100017.41;1767830;79;21837;-70
2022/07/12 03:45:54;;;;;;;3.50;1.00;;;;;;;15.20;68.97;100017.24;1767416;79;21012;-71
2022/07/12 03:48:21;;;;;;;4.78;1.10;;;;;;;15.19;68.72;100015.57;1765572;79;21117;-71
2022/07/12 03:50:50;;;;;;;4.67;1.22;;;;;;;15.17;68.74;100018.06;1757379;79;21063;-71
2022/07/12 03:53:16;;;;;;;3.30;1.05;;;;;;;15.14;68.83;100016.55;1764050;79;21504;-71
2022/07/12 03:55:43;;;;;;;6.53;0.93;;;;;;;15.19;68.87;100017.41;1764589;79;21583;-71
2022/07/12 03:58:09;;;;;;;4.08;1.17;;;;;;;15.27;68.53;100017.93;1773786;79;21550;-70
2022/07/12 04:00:37;;;;;;;3.12;1.10;;;;;;;15.30;68.33;100015.78;1759586;79;21539;-71
2022/07/12 04:03:03;;;;;;;5.25;1.20;;;;;;;15.33;68.33;100011.95;1761322;80;21058;-71
2022/07/12 04:05:30;;;;;;;4.42;1.50;;;;;;;15.34;68.18;100021.58;1767692;79;21082;-69
2022/07/12 04:07:57;;;;;;;4.83;0.90;;;;;;;15.34;67.93;100026.88;1766154;79;21129;-70
2022/07/12 04:10:25;;;;;;;3.15;1.00;;;;;;;15.35;67.73;100008.17;1761662;80;21134;-70
2022/07/12 04:12:53;;;;;;;4.37;1.12;;;;;;;15.42;67.74;100017.63;1761200;79;21075;-70
2022/07/12 04:15:20;;;;;;;6.00;1.45;;;;;;;15.49;67.74;100016.47;1766145;79;21723;-70
2022/07/12 04:17:47;;;;;;;4.97;1.30;;;;;;;15.50;67.79;100010.16;1760416;79;21342;-70
2022/07/12 04:20:14;;;;;;;3.72;1.30;;;;;;;15.49;67.80;100011.98;1762431;79;21158;-69
2022/07/12 04:22:40;;;;;;;3.30;1.00;;;;;;;15.52;67.68;100024.11;1705195;82;21048;-70
2022/07/12 04:25:08;;;;;;;4.37;1.20;;;;;;;15.57;67.66;100028.42;1703484;82;21154;-70
2022/07/12 04:27:34;;;;;;;2.60;1.02;;;;;;;15.64;67.33;100029.92;1762905;79;21118;-70
2022/07/12 04:30:00;;;;;;;3.72;1.10;;;;;;;15.70;67.56;100039.38;1703425;82;21099;-71
2022/07/12 04:32:27;;;;;;;4.53;1.25;;;;;;;15.73;66.96;100033.72;1762816;79;22004;-71
2022/07/12 04:34:54;;;;;;;4.03;1.30;;;;;;;15.74;67.36;100043.34;1756018;80;21662;-71
2022/07/12 04:37:21;;;;;;;2.70;1.15;;;;;;;15.75;67.39;100046.38;1765424;79;21516;-71
2022/07/12 04:39:49;;;;;;;3.35;1.00;;;;;;;15.80;67.49;100044.53;1761623;79;21086;-71
2022/07/12 04:42:15;;;;;;;3.98;1.10;;;;;;;15.91;66.79;100046.04;1763113;79;21090;-71
2022/07/12 04:44:42;;;;;;;5.20;1.20;;;;;;;15.97;66.79;100048.05;1763588;79;21148;-71
2022/07/12 04:47:10;;;;;;;3.92;1.17;;;;;;;16.01;66.62;100053.33;1758396;79;21063;-71
2022/07/12 04:49:38;;;;;;;4.12;1.10;;;;;;;16.03;66.15;100049.19;1765373;79;21031;-72
2022/07/12 04:52:06;;;;;;;6.08;1.12;;;;;;;16.03;66.50;100049.19;1764715;80;21094;-70
2022/07/12 04:54:34;;;;;;;19.73;3.90;;;;;;;16.07;65.95;100064.63;1768656;79;21048;-71
2022/07/12 04:57:00;;;;;;;2.87;1.20;;;;;;;16.14;65.58;100058.97;1766344;79;21146;-70
2022/07/12 04:59:27;;;;;;;3.52;1.20;;;;;;;16.17;65.64;100056.46;1743852;81;21044;-71
2022/07/12 05:01:53;;;;;;;5.40;1.40;;;;;;;16.20;65.57;100054.80;1746646;80;21028;-71
2022/07/12 05:04:20;;;;;;;3.67;1.40;;;;;;;16.22;66.18;100054.64;1745184;80;21073;-71
2022/07/12 05:06:48;;;;;;;4.62;1.85;;;;;;;16.24;65.63;100061.94;1735855;80;21549;-71
2022/07/12 05:09:15;;;;;;;5.58;1.95;;;;;;;16.23;65.30;100069.58;1741031;81;21984;-70
2022/07/12 05:11:42;;;;;;;3.80;1.27;;;;;;;16.26;65.63;100071.41;1746933;81;21657;-71
2022/07/12 05:14:09;;;;;;;5.08;1.20;;;;;;;16.37;65.79;100069.39;1741334;80;21588;-71
2022/07/12 05:16:36;;;;;;;3.12;1.15;;;;;;;16.46;65.32;100068.40;1733417;80;21024;-71
2022/07/12 05:19:03;;;;;;;3.10;1.15;;;;;;;16.48;64.87;100071.70;1729424;80;21071;-71
2022/07/12 05:21:29;;;;;;;4.42;1.50;;;;;;;16.49;64.57;100083.49;1740352;80;21135;-71
2022/07/12 05:23:56;;;;;;;3.37;1.50;;;;;;;16.47;64.68;100080.16;1739812;80;21044;-71
2022/07/12 05:26:23;;;;;;;3.87;1.70;;;;;;;16.48;64.83;100083.15;1741877;81;22200;-70
2022/07/12 05:28:50;;;;;;;2.33;0.98;;;;;;;16.54;64.50;100076.33;1680555;83;21067;-69
2022/07/12 05:31:16;;;;;;;6.80;1.40;;;;;;;16.66;64.61;100075.47;1743095;80;21618;-69
2022/07/12 05:33:43;;;;;;;3.60;1.40;;;;;;;16.73;64.17;100073.81;1740388;80;21899;-70
2022/07/12 05:36:09;;;;;;;4.08;1.20;;;;;;;16.80;63.92;100071.30;1740510;81;21543;-70
2022/07/12 05:38:36;;;;;;;6.72;1.65;;;;;;;16.82;63.50;100074.09;1737967;80;21059;-70
2022/07/12 05:41:03;;;;;;;6.08;1.77;;;;;;;16.84;63.50;100078.77;1740216;80;21092;-70
2022/07/12 05:43:31;;;;;;;8.03;1.75;;;;;;;16.86;63.73;100083.44;1740991;80;20996;-70
2022/07/12 05:45:57;;;;;;;3.75;1.55;;;;;;;16.94;63.65;100076.42;1740994;81;22243;-70
2022/07/12 05:48:24;;;;;;;3.37;1.12;;;;;;;17.06;62.89;100080.35;1738900;80;21032;-70
2022/07/12 05:50:50;;;;;;;3.20;1.17;;;;;;;17.16;63.20;100086.28;1736605;80;21048;-70
2022/07/12 05:53:22;;;;;;;2.58;0.90;;;;;;;17.21;62.74;100087.92;1742229;80;21115;-70
2022/07/12 05:55:53;;;;;;;4.22;1.20;;;;;;;17.27;62.55;100088.56;1744963;80;21056;-70
2022/07/12 05:58:20;;;;;;;6.05;1.50;;;;;;;17.33;61.93;100106.16;1744035;79;22263;-70
2022/07/12 06:00:47;;;;;;;4.62;1.47;;;;;;;17.33;61.32;100098.19;1753421;80;21563;-69
2022/07/12 06:03:14;;;;;;;4.28;1.15;;;;;;;17.31;61.61;100092.22;1751363;79;21857;-71
2022/07/12 06:05:41;;;;;;;5.17;1.40;;;;;;;17.34;61.57;100099.85;1750918;79;21031;-70
2022/07/12 06:08:08;;;;;;;4.67;1.35;;;;;;;17.35;61.22;100098.83;1751953;79;21083;-70
2022/07/12 06:10:35;;;;;;;6.40;1.25;;;;;;;17.44;61.40;100105.27;1753240;80;21492;-70
2022/07/12 06:13:02;;;;;;;2.55;1.00;;;;;;;17.54;61.41;100102.39;1750836;80;21028;-71
2022/07/12 06:15:29;;;;;;;3.95;1.02;;;;;;;17.61;61.18;100098.02;1760811;79;21086;-69
2022/07/12 06:17:56;;;;;;;2.98;1.10;;;;;;;17.66;61.68;100099.34;1751108;79;21074;-72
2022/07/12 06:20:24;;;;;;;4.35;1.20;;;;;;;17.71;61.52;100094.32;1755194;79;21094;-72
2022/07/12 06:22:50;;;;;;;2.77;1.05;;;;;;;17.76;60.48;100098.61;1751710;79;21175;-72
2022/07/12 06:25:17;;;;;;;3.92;1.20;;;;;;;17.77;60.62;100098.91;1754817;79;21082;-72
2022/07/12 06:27:44;;;;;;;3.83;1.05;;;;;;;17.78;60.35;100090.76;1754408;80;21047;-72
2022/07/12 06:30:11;;;;;;;3.08;1.10;;;;;;;17.79;59.81;100105.73;1747252;79;21126;-72
2022/07/12 06:32:38;;;;;;;4.58;0.90;;;;;;;17.81;60.09;100109.55;1750462;79;21078;-73
2022/07/12 06:35:06;;;;;;;2.72;0.93;;;;;;;17.88;59.67;100107.86;1750691;80;21531;-72
2022/07/12 06:37:33;;;;;;;4.55;1.02;;;;;;;18.00;59.42;100103.80;1747473;80;21048;-70
2022/07/12 06:39:59;;;;;;;3.35;1.00;;;;;;;18.07;59.27;100107.91;1759892;79;21070;-72
2022/07/12 06:42:26;;;;;;;3.27;1.17;;;;;;;18.15;59.37;100107.81;1753654;79;22270;-71
2022/07/12 06:44:53;;;;;;;3.90;0.95;;;;;;;18.26;59.21;100108.42;1749889;79;21119;-70
2022/07/12 06:47:20;;;;;;;2.33;0.80;;;;;;;18.32;58.16;100114.34;1698976;82;21085;-71
2022/07/12 06:49:47;;;;;;;2.42;0.82;;;;;;;18.33;57.86;100110.16;1755144;79;21016;-72
2022/07/12 06:52:13;;;;;;;2.92;1.00;;;;;;;18.36;58.08;100116.47;1750249;79;21361;-70
2022/07/12 06:54:40;;;;;;;2.58;0.82;;;;;;;18.40;57.33;100118.27;1751758;79;21043;-70
2022/07/12 06:57:07;;;;;;;3.65;0.80;;;;;;;18.45;57.55;100120.40;1752304;80;21031;-70
2022/07/12 06:59:34;;;;;;;2.52;0.78;;;;;;;18.50;57.26;100114.02;1762153;79;21130;-72
2022/07/12 07:02:01;;;;;;;2.20;0.70;;;;;;;18.55;57.35;100141.77;1754456;79;21623;-72
2022/07/12 07:04:27;;;;;;;3.27;1.15;;;;;;;18.56;56.54;100123.45;1751235;79;21537;-72
2022/07/12 07:06:54;;;;;;;2.85;1.10;;;;;;;18.59;56.43;100142.22;1759902;79;21074;-72
2022/07/12 07:09:20;;;;;;;4.33;0.93;;;;;;;18.62;56.25;100120.55;1761806;80;21040;-72
2022/07/12 07:11:47;;;;;;;2.20;0.80;;;;;;;18.66;56.55;100125.01;1757918;80;21087;-72
2022/07/12 07:14:13;;;;;;;3.67;0.93;;;;;;;18.74;55.92;100124.93;1756075;79;21063;-73
2022/07/12 07:16:40;;;;;;;2.67;0.85;;;;;;;18.80;55.04;100124.20;1755496;80;21150;-72
2022/07/12 07:19:07;;;;;;;2.20;0.88;;;;;;;18.82;55.49;100130.17;1760038;79;21035;-73
2022/07/12 07:21:34;;;;;;;2.52;0.90;;;;;;;18.90;55.40;100126.64;1746337;79;21086;-73
2022/07/12 07:24:00;;;;;;;3.85;1.10;;;;;;;18.98;54.54;100137.70;1750266;79;21686;-73
2022/07/12 07:26:27;;;;;;;1.40;0.60;;;;;;;19.01;54.54;100136.00;1751961;79;21016;-73
2022/07/12 07:31:39;;;;;;;2.10;0.70;;;;;;;19.04;54.74;100139.13;1755472;80;22417;-70
2022/07/12 07:34:06;;;;;;;3.05;0.82;;;;;;;19.09;54.20;100140.73;1759769;79;21048;-71
2022/07/12 07:36:32;;;;;;;2.17;0.62;;;;;;;19.15;53.53;100145.01;1762681;80;22656;-72
2022/07/12 07:38:59;;;;;;;3.33;0.82;;;;;;;19.19;53.56;100151.12;1758588;80;21693;-72
2022/07/12 07:41:25;;;;;;;3.33;0.78;;;;;;;19.31;54.05;100140.30;1750476;79;21630;-72
2022/07/12 07:43:52;;;;;;;2.75;0.70;;;;;;;19.45;53.60;100145.80;1757307;79;21063;-72
2022/07/12 07:46:18;;;;;;;1.87;0.70;;;;;;;19.58;52.80;100158.48;1760076;79;21156;-72
2022/07/12 07:48:45;;;;;;;2.05;0.80;;;;;;;19.73;52.52;100138.44;1759960;79;21559;-72
2022/07/12 07:51:11;;;;;;;2.02;0.70;;;;;;;19.82;52.26;100152.84;1772975;79;21035;-72
2022/07/12 07:53:38;;;;;;;3.75;0.95;;;;;;;19.90;51.34;100145.73;1765231;79;21036;-72
2022/07/12 07:56:05;;;;;;;3.25;0.90;;;;;;;19.96;51.53;100147.65;1761837;79;21004;-72
2022/07/12 07:58:32;;;;;;;2.52;0.80;;;;;;;20.06;50.75;100148.16;1759237;80;21014;-73
2022/07/12 08:00:58;;;;;;;4.65;0.85;;;;;;;20.17;51.19;100143.65;1760993;79;21148;-72
2022/07/12 08:03:25;;;;;;;4.22;0.98;;;;;;;20.30;50.74;100155.46;1762720;79;21106;-73
2022/07/12 08:05:51;;;;;;;2.30;0.90;;;;;;;20.40;50.16;100133.24;1779201;79;21026;-72
2022/07/12 08:08:18;;;;;;;3.02;0.90;;;;;;;20.47;49.70;100143.47;1757723;80;21063;-72
2022/07/12 08:10:45;;;;;;;2.52;1.05;;;;;;;20.55;49.77;100136.64;1761104;79;21129;-73
2022/07/12 08:13:11;;;;;;;2.30;0.70;;;;;;;20.69;50.13;100126.08;1768455;79;21222;-73
2022/07/12 08:15:38;;;;;;;2.90;0.70;;;;;;;20.87;49.55;100134.95;1771204;80;21547;-73
2022/07/12 08:18:05;;;;;;;2.62;0.95;;;;;;;20.95;49.22;100128.11;1779332;79;21102;-72
2022/07/12 08:20:32;;;;;;;2.05;0.55;;;;;;;21.09;49.77;100125.80;1753990;80;21042;-73
2022/07/12 08:22:59;;;;;;;1.95;0.70;;;;;;;21.21;48.85;100118.03;1754126;79;21527;-72
2022/07/12 08:25:25;;;;;;;2.47;0.60;;;;;;;21.24;47.79;100128.86;1768577;79;21142;-72
2022/07/12 08:27:52;;;;;;;3.27;0.70;;;;;;;21.17;48.17;100133.37;1775892;79;21015;-72
2022/07/12 08:30:20;;;;;;;2.10;0.70;;;;;;;21.07;47.72;100131.87;1770049;79;20992;-72
2022/07/12 08:32:47;;;;;;;4.28;0.90;;;;;;;20.92;48.57;100141.34;1765924;80;21051;-72
2022/07/12 08:35:14;;;;;;;3.42;0.75;;;;;;;20.80;49.31;100140.77;1769242;79;21077;-72
2022/07/12 08:37:42;;;;;;;2.47;0.70;;;;;;;20.72;49.31;100139.88;1770573;79;21223;-72
2022/07/12 08:40:09;;;;;;;3.98;0.95;;;;;;;20.59;49.84;100158.47;1757061;79;21026;-71
2022/07/12 08:42:42;;;;;;;3.75;1.02;;;;;;;20.45;52.32;100164.22;1758647;80;21039;-71
2022/07/12 08:45:10;;;;;;;7.35;0.98;;;;;;;20.26;53.71;100155.02;1761595;79;21066;-72
2022/07/12 08:47:37;;;;;;;3.10;0.90;;;;;;;20.05;55.20;100169.19;1769770;79;21027;-71
2022/07/12 08:50:17;;;;;;;4.70;1.10;;;;;;;19.91;56.34;100172.76;1754648;80;21170;-71
2022/07/12 08:52:46;;;;;;;2.62;1.10;;;;;;;19.76;57.55;100179.47;1759763;79;21109;-72
2022/07/12 08:55:25;;;;;;;3.30;1.10;;;;;;;19.62;58.78;100179.28;1766030;79;21077;-72
2022/07/12 08:57:54;;;;;;;2.60;0.93;;;;;;;19.63;60.56;100172.09;1756430;80;21023;-72
2022/07/12 09:00:22;;;;;;;2.52;0.80;;;;;;;19.74;59.16;100183.63;1755909;80;21024;-72
2022/07/12 09:02:56;;;;;;;3.30;1.07;;;;;;;19.79;59.38;100169.23;1755194;79;21874;-72
2022/07/12 09:05:27;;;;;;;3.52;1.17;;;;;;;19.83;59.58;100178.52;1758157;79;21520;-72
2022/07/12 09:08:06;;;;;;;3.80;1.00;;;;;;;19.89;59.05;100182.29;1755041;80;21270;-72
2022/07/12 09:10:34;;;;;;;3.27;1.05;;;;;;;19.95;58.25;100172.17;1745901;80;21069;-72
2022/07/12 09:13:01;;;;;;;3.17;0.90;;;;;;;19.99;57.78;100173.46;1753715;79;21134;-72
2022/07/12 09:15:29;;;;;;;3.35;0.90;;;;;;;20.01;57.58;100183.44;1752699;79;21047;-73
2022/07/12 09:18:03;;;;;;;2.33;0.93;;;;;;;20.03;56.93;100176.06;1749733;79;21000;-73
2022/07/12 09:20:33;;;;;;;2.27;0.90;;;;;;;20.12;55.40;100170.08;1750502;79;21043;-73
2022/07/12 09:23:03;;;;;;;5.22;1.02;;;;;;;20.26;55.43;100164.86;1758357;79;21082;-73
2022/07/12 09:25:31;;;;;;;3.77;1.20;;;;;;;20.42;55.27;100163.27;1757240;80;21054;-72
2022/07/12 09:27:59;;;;;;;4.92;1.25;;;;;;;20.60;55.15;100168.97;1750234;79;21118;-72
2022/07/12 09:30:28;;;;;;;3.17;0.95;;;;;;;20.78;53.41;100167.19;1755464;79;21509;-73
2022/07/12 09:36:10;;;;;;;3.10;1.10;;;;;;;21.03;52.00;100147.16;1751786;79;21062;-71
2022/07/12 09:38:47;;;;;;;4.55;1.15;;;;;;;21.10;51.23;100156.08;1749131;79;21063;-72
2022/07/12 09:41:20;;;;;;;3.75;1.10;;;;;;;21.14;51.74;100150.62;1752816;80;21338;-72
2022/07/12 09:43:47;;;;;;;2.75;0.90;;;;;;;21.25;50.63;100158.59;1752811;79;21011;-72
2022/07/12 09:46:14;;;;;;;3.05;1.00;;;;;;;21.29;50.83;100142.47;1747570;79;21086;-72
2022/07/12 09:48:41;;;;;;;4.10;1.00;;;;;;;21.37;50.70;100148.15;1748453;79;22177;-73
2022/07/12 09:51:09;;;;;;;2.12;0.90;;;;;;;21.41;49.44;100146.22;1755573;80;21075;-73
2022/07/12 09:53:51;;;;;;;5.75;1.20;;;;;;;21.40;48.82;100155.78;1750927;79;22736;-72
2022/07/12 09:56:20;;;;;;;1.85;0.60;;;;;;;21.32;48.05;100144.23;1753128;79;21054;-72
2022/07/12 09:58:56;;;;;;;2.72;0.80;;;;;;;21.17;47.46;100146.22;1747996;79;21038;-72
2022/07/12 10:01:24;;;;;;;3.42;0.90;;;;;;;21.03;48.96;100150.69;1745113;79;21074;-72
2022/07/12 10:03:51;;;;;;;2.30;0.80;;;;;;;20.90;49.67;100155.43;1716230;81;21659;-72
2022/07/12 10:06:28;;;;;;;2.08;0.82;;;;;;;20.78;50.51;100174.39;1761835;79;21539;-72
2022/07/12 10:08:56;;;;;;;2.45;0.65;;;;;;;20.63;51.21;100177.16;1753719;79;21035;-72
2022/07/12 10:11:25;;;;;;;2.90;0.40;;;;;;;20.47;51.02;100182.22;1754793;80;21098;-72
2022/07/12 10:13:54;;;;;;;7.20;1.20;;;;;;;20.33;49.16;100183.14;1750458;80;21107;-72
2022/07/12 10:16:27;;;;;;;2.62;0.62;;;;;;;20.15;47.95;100182.23;1750900;80;21094;-72
2022/07/12 10:19:29;;;;;;;3.05;0.50;;;;;;;20.00;48.87;100183.11;1746529;79;21152;-72
2022/07/12 10:21:59;;;;;;;0.98;0.35;;;;;;;19.96;46.88;100186.37;1755569;79;21054;-72
2022/07/12 10:24:48;;;;;;;0.90;0.30;;;;;;;19.86;47.73;100172.80;1751605;80;21060;-72
2022/07/12 10:27:21;;;;;;;1.75;0.40;;;;;;;19.82;47.86;100182.22;1748800;80;21086;-72
2022/07/12 10:29:49;;;;;;;2.62;0.50;;;;;;;19.81;47.29;100177.88;1750909;79;21045;-73
2022/07/12 10:32:35;;;;;;;1.47;0.40;;;;;;;19.82;48.10;100186.22;1707483;83;21651;-73
2022/07/12 10:35:09;;;;;;;1.12;0.35;;;;;;;19.79;47.70;100183.92;1755733;80;21062;-73
2022/07/12 10:37:35;;;;;;;1.05;0.37;;;;;;;19.83;48.10;100182.52;1745245;79;21094;-73
2022/07/12 10:40:17;;;;;;;1.92;0.40;;;;;;;19.95;48.85;100180.70;1749770;79;21090;-73
2022/07/12 10:43:08;;;;;;;1.98;0.42;;;;;;;20.09;48.81;100174.98;1748105;79;21027;-73
2022/07/12 10:45:39;;;;;;;0.98;0.20;;;;;;;20.23;49.07;100176.77;1750213;80;21136;-72
2022/07/12 10:48:18;;;;;;;2.95;0.50;;;;;;;20.38;48.85;100180.20;1756483;79;21762;-72
2022/07/12 10:50:55;;;;;;;2.00;0.70;;;;;;;20.48;49.73;100178.54;1751318;79;21567;-73
2022/07/12 10:53:33;;;;;;;1.30;0.55;;;;;;;20.59;49.80;100174.02;1714549;82;21075;-73
2022/07/12 10:56:18;;;;;;;1.35;0.50;;;;;;;20.72;49.64;100189.34;1752032;79;21067;-72
2022/07/12 10:58:54;;;;;;;5.78;0.75;;;;;;;20.84;49.12;100190.97;1755594;79;21243;-73
2022/07/12 11:01:27;;;;;;;0.98;0.30;;;;;;;20.97;49.03;100188.39;1752110;80;21653;-72
2022/07/12 11:04:06;;;;;;;1.65;0.47;;;;;;;21.10;47.96;100189.52;1690127;82;21540;-73
2022/07/12 11:06:41;;;;;;;0.85;0.40;;;;;;;21.18;47.34;100177.28;1700930;82;21858;-72
2022/07/12 11:09:12;;;;;;;4.12;0.55;;;;;;;21.31;47.88;100163.98;1749751;79;21050;-73
2022/07/12 11:14:53;;;;;;;3.83;0.30;;;;;;;21.83;44.43;100167.09;1801673;78;22168;-47
2022/07/12 11:17:26;;;;;;;1.55;0.30;;;;;;;21.92;43.37;100166.38;1761977;80;20987;-48
2022/07/12 11:20:13;;;;;;;1.50;0.47;;;;;;;21.95;43.62;100165.98;1769659;80;21141;-48
2022/07/12 11:22:40;;;;;;;2.10;0.40;;;;;;;21.95;42.75;100169.19;1765062;79;20978;-47
2022/07/12 11:25:12;;;;;;;2.15;0.55;;;;;;;21.98;42.96;100160.75;1766119;79;20930;-47
2022/07/12 11:27:38;;;;;;;2.22;0.45;;;;;;;22.07;44.41;100159.02;1743875;80;21553;-47
2022/07/12 11:30:08;;;;;;;2.30;0.50;;;;;;;22.21;44.39;100149.66;1763643;80;20955;-47
2022/07/12 11:32:41;;;;;;;2.35;0.50;;;;;;;22.30;44.55;100157.00;1766466;79;21087;-47
2022/07/12 11:35:20;;;;;;;0.95;0.30;;;;;;;22.38;42.04;100150.11;1765292;80;21014;-47
2022/07/12 11:37:51;;;;;;;2.05;0.55;;;;;;;22.43;41.32;100147.10;1760950;80;21089;-47
2022/07/12 11:40:24;;;;;;;1.40;0.37;;;;;;;22.49;40.99;100145.97;1768557;80;21062;-48